createdAt,value
2018-12-18T00:00:09.567Z,89.2
2018-12-18T00:01:09.465Z,89.3
2018-12-18T00:02:09.596Z,89.4
2018-12-18T00:03:09.483Z,89.6
2018-12-18T00:04:09.407Z,89.4
2018-12-18T00:05:09.761Z,89.2
2018-12-18T00:06:09.657Z,89.2
2018-12-18T00:07:09.582Z,89.2
2018-12-18T00:08:09.494Z,89.1
2018-12-18T00:09:09.391Z,89
2018-12-18T00:10:09.300Z,88.9
2018-12-18T00:11:09.201Z,88.8
2018-12-18T00:12:09.104Z,88.7
2018-12-18T00:13:08.991Z,88.6
2018-12-18T00:14:08.871Z,88.6
2018-12-18T00:15:09.346Z,88.5
2018-12-18T00:16:09.229Z,88.5
2018-12-18T00:17:09.356Z,87.7
2018-12-18T00:18:09.266Z,87.1
2018-12-18T00:19:09.167Z,86.7
2018-12-18T00:25:08.436Z,84.5
2018-12-18T00:26:08.353Z,85.1
2018-12-18T00:27:08.244Z,85.4
2018-12-18T00:28:09.159Z,85.6
2018-12-18T00:29:09.041Z,85.6
2018-12-18T00:30:08.926Z,85.7
2018-12-18T00:31:08.840Z,85.8
2018-12-18T00:32:08.961Z,85.8
2018-12-18T00:33:08.847Z,85.9
2018-12-18T00:34:08.726Z,86.1
2018-12-18T00:35:09.761Z,86.3
2018-12-18T00:36:09.699Z,86.4
2018-12-18T00:37:09.591Z,86.3
2018-12-18T00:38:09.509Z,86.4
2018-12-18T00:39:09.401Z,86.5
2018-12-18T00:40:09.554Z,86.4
2018-12-18T00:41:09.459Z,86.4
2018-12-18T00:42:09.353Z,86.4
2018-12-18T00:43:09.238Z,86.4
2018-12-18T00:44:09.133Z,86.5
2018-12-18T00:45:09.441Z,86.7
2018-12-18T00:46:09.563Z,86.9
2018-12-18T00:47:09.461Z,86.9
2018-12-18T00:49:09.091Z,85.7
2018-12-18T00:50:09.004Z,85.2
2018-12-18T00:52:08.613Z,84.3
2018-12-18T00:54:08.277Z,83.2
2018-12-18T00:55:08.647Z,83.1
2018-12-18T00:56:08.528Z,83.1
2018-12-18T00:57:08.472Z,83.1
2018-12-18T00:59:08.131Z,83
2018-12-18T01:00:08.039Z,82.8
2018-12-18T01:01:07.941Z,82.6
2018-12-18T01:03:07.560Z,82.6
2018-12-18T01:04:07.488Z,82.6
2018-12-18T01:05:07.825Z,82.4
2018-12-18T01:06:07.721Z,83.1
2018-12-18T01:07:07.673Z,83.2
2018-12-18T01:08:07.579Z,83.3
2018-12-18T01:09:07.488Z,83.5
2018-12-18T01:10:07.613Z,83.5
2018-12-18T01:11:07.507Z,83.4
2018-12-18T01:12:07.386Z,83.6
2018-12-18T01:13:07.256Z,83.7
2018-12-18T01:14:07.456Z,83.9
2018-12-18T01:15:07.763Z,83.9
2018-12-18T01:16:07.717Z,84.1
2018-12-18T01:17:07.599Z,84.2
2018-12-18T01:18:07.491Z,84.2
2018-12-18T01:19:07.456Z,84.5
2018-12-18T01:20:08.058Z,84.7
2018-12-18T01:21:07.954Z,84.8
2018-12-18T01:22:07.834Z,85
2018-12-18T01:23:07.960Z,85
2018-12-18T01:24:07.837Z,85.1
2018-12-18T01:25:08.166Z,85.3
2018-12-18T01:26:08.052Z,85.6
2018-12-18T01:27:07.951Z,85.6
2018-12-18T01:28:07.838Z,85.8
2018-12-18T01:29:07.731Z,85.8
2018-12-18T01:30:07.644Z,85.6
2018-12-18T01:31:07.552Z,85.7
2018-12-18T01:32:07.466Z,85.6
2018-12-18T01:33:07.364Z,85.6
2018-12-18T01:34:07.278Z,85.6
2018-12-18T01:35:08.094Z,85.7
2018-12-18T01:36:07.992Z,85.6
2018-12-18T01:37:07.873Z,85.5
2018-12-18T01:38:08.002Z,85.2
2018-12-18T01:39:07.890Z,85.2
2018-12-18T01:40:07.840Z,85.4
2018-12-18T01:41:07.758Z,85.3
2018-12-18T01:42:07.642Z,85.2
2018-12-18T01:43:07.529Z,85.3
2018-12-18T01:44:07.419Z,85.4
2018-12-18T01:45:07.738Z,85.4
2018-12-18T01:46:07.661Z,85.6
2018-12-18T01:47:07.766Z,85.3
2018-12-18T01:48:07.648Z,85.3
2018-12-18T01:49:07.530Z,85.3
2018-12-18T01:50:07.455Z,85.3
2018-12-18T01:51:07.599Z,85.3
2018-12-18T01:52:07.565Z,85.4
2018-12-18T01:53:07.471Z,85.3
2018-12-18T01:54:07.390Z,85.3
2018-12-18T01:55:07.719Z,85.3
2018-12-18T01:56:07.620Z,85.7
2018-12-18T01:57:07.535Z,85.4
2018-12-18T01:58:07.405Z,85.3
2018-12-18T01:59:07.290Z,85.6
2018-12-18T02:00:07.415Z,85.6
2018-12-18T02:01:07.299Z,85.6
2018-12-18T02:02:07.203Z,85.6
2018-12-18T02:03:07.089Z,85.6
2018-12-18T02:04:07.034Z,85.7
2018-12-18T02:05:07.397Z,85.8
2018-12-18T02:06:07.307Z,85.8
2018-12-18T02:07:07.205Z,85.9
2018-12-18T02:08:07.181Z,85.7
2018-12-18T02:09:07.309Z,85.8
2018-12-18T02:10:07.203Z,85.9
2018-12-18T02:11:07.091Z,85.6
2018-12-18T02:12:07.449Z,85.5
2018-12-18T02:13:07.367Z,85.7
2018-12-18T02:14:07.247Z,85.6
2018-12-18T02:15:07.795Z,85.9
2018-12-18T02:16:07.683Z,86
2018-12-18T02:17:07.575Z,85.9
2018-12-18T02:18:07.685Z,85.8
2018-12-18T02:19:07.607Z,85.7
2018-12-18T02:20:07.499Z,86
2018-12-18T02:21:07.467Z,86
2018-12-18T02:22:07.375Z,85.7
2018-12-18T02:23:07.251Z,85.7
2018-12-18T02:24:07.381Z,85.6
2018-12-18T02:25:07.689Z,85.8
2018-12-18T02:26:07.577Z,85.8
2018-12-18T02:27:07.463Z,85.6
2018-12-18T02:28:07.354Z,84.5
2018-12-18T02:35:14.615Z,81.9
2018-12-18T02:36:14.510Z,82.5
2018-12-18T02:37:14.423Z,82.7
2018-12-18T02:38:14.340Z,82.5
2018-12-18T02:39:14.269Z,82.5
2018-12-18T02:40:14.171Z,82.7
2018-12-18T02:41:14.317Z,82.9
2018-12-18T02:42:14.256Z,82.7
2018-12-18T02:43:14.126Z,83.2
2018-12-18T02:44:14.023Z,83.2
2018-12-18T02:45:14.354Z,83.6
2018-12-18T02:46:14.351Z,83.9
2018-12-18T02:47:14.243Z,84.1
2018-12-18T02:48:14.141Z,84.1
2018-12-18T02:49:14.045Z,83.9
2018-12-18T02:50:13.988Z,84.1
2018-12-18T02:51:14.601Z,84.2
2018-12-18T02:52:14.508Z,84.3
2018-12-18T02:53:14.469Z,84.1
2018-12-18T02:54:14.603Z,84
2018-12-18T02:55:14.923Z,84
2018-12-18T02:56:14.810Z,84.2
2018-12-18T02:57:14.702Z,84.1
2018-12-18T02:58:14.606Z,84.1
2018-12-18T02:59:14.503Z,84.4
2018-12-18T03:00:14.404Z,84.2
2018-12-18T03:01:14.339Z,84.2
2018-12-18T03:02:14.256Z,84.5
2018-12-18T03:03:14.166Z,84.4
2018-12-18T03:04:22.472Z,84.7
2018-12-18T03:05:22.838Z,84.3
2018-12-18T03:06:22.766Z,84.6
2018-12-18T03:07:22.658Z,84.6
2018-12-18T03:08:22.548Z,83.3
2018-12-18T03:09:22.495Z,83
2018-12-18T03:15:21.528Z,81.6
2018-12-18T03:16:21.438Z,82.3
2018-12-18T03:17:21.366Z,82.5
2018-12-18T03:18:21.272Z,82.6
2018-12-18T03:19:21.154Z,82.6
2018-12-18T03:20:21.042Z,82.6
2018-12-18T03:21:20.978Z,82.6
2018-12-18T03:22:20.896Z,82.7
2018-12-18T03:23:20.800Z,82.9
2018-12-18T03:24:20.696Z,83.6
2018-12-18T03:25:20.990Z,83.2
2018-12-18T03:26:20.882Z,83.4
2018-12-18T03:27:20.796Z,82.8
2018-12-18T03:28:20.706Z,82.6
2018-12-18T03:29:20.630Z,82
2018-12-18T03:35:19.962Z,80.4
2018-12-18T03:36:20.065Z,80.9
2018-12-18T03:37:19.972Z,81.2
2018-12-18T03:38:19.872Z,81.4
2018-12-18T03:39:19.780Z,81.6
2018-12-18T03:40:19.918Z,81.6
2018-12-18T03:41:19.816Z,81.6
2018-12-18T03:42:19.719Z,81.9
2018-12-18T03:43:19.642Z,82
2018-12-18T03:44:19.528Z,82.3
2018-12-18T03:45:20.135Z,82.2
2018-12-18T03:46:20.035Z,82.3
2018-12-18T03:47:19.941Z,82.5
2018-12-18T03:48:19.850Z,82.7
2018-12-18T03:49:19.761Z,82.7
2018-12-18T03:50:19.672Z,83
2018-12-18T03:51:19.565Z,83.1
2018-12-18T03:52:19.715Z,83
2018-12-18T03:53:19.641Z,83
2018-12-18T03:54:19.540Z,82.9
2018-12-18T03:55:20.174Z,83.4
2018-12-18T03:56:20.056Z,83.2
2018-12-18T03:57:19.944Z,83
2018-12-18T03:58:19.856Z,83.6
2018-12-18T03:59:19.770Z,83.4
2018-12-18T04:00:19.652Z,83.2
2018-12-18T04:01:19.530Z,83.4
2018-12-18T04:02:19.428Z,83
2018-12-18T04:03:19.335Z,83.4
2018-12-18T04:04:19.225Z,84
2018-12-18T04:05:19.671Z,83.7
2018-12-18T04:06:19.557Z,83.7
2018-12-18T04:08:19.221Z,82.4
2018-12-18T04:15:18.019Z,80.3
2018-12-18T04:16:18.021Z,80.6
2018-12-18T04:17:17.946Z,80.8
2018-12-18T04:18:17.849Z,80.7
2018-12-18T04:19:17.750Z,81.2
2018-12-18T04:20:17.650Z,81.2
2018-12-18T04:21:17.587Z,81.5
2018-12-18T04:22:17.495Z,81.5
2018-12-18T04:23:17.394Z,81.5
2018-12-18T04:24:17.294Z,81.4
2018-12-18T04:25:17.675Z,81.6
2018-12-18T04:26:17.580Z,81.8
2018-12-18T04:27:17.707Z,82.2
2018-12-18T04:28:17.619Z,81.2
2018-12-18T04:38:15.629Z,78.1
2018-12-18T04:40:15.250Z,78
2018-12-18T04:42:14.883Z,77.4
2018-12-18T04:45:16.502Z,77.7
2018-12-18T04:46:16.442Z,78.5
2018-12-18T04:47:16.327Z,79
2018-12-18T04:48:16.229Z,79
2018-12-18T04:49:16.114Z,79
2018-12-18T04:50:15.989Z,79.6
2018-12-18T04:51:15.891Z,79.9
2018-12-18T04:52:15.812Z,79.8
2018-12-18T04:53:15.699Z,79.6
2018-12-18T04:54:15.624Z,79.6
2018-12-18T04:55:15.941Z,80.2
2018-12-18T04:56:15.856Z,80.4
2018-12-18T04:57:15.736Z,80.2
2018-12-18T04:58:15.608Z,79.6
2018-12-18T05:06:20.455Z,77.4
2018-12-18T05:11:19.370Z,76.8
2018-12-18T05:13:18.991Z,76.6
2018-12-18T05:15:19.087Z,76.9
2018-12-18T05:16:19.006Z,77.8
2018-12-18T05:17:18.888Z,77.9
2018-12-18T05:18:18.788Z,78.5
2018-12-18T05:19:18.696Z,78.4
2018-12-18T05:20:18.615Z,78.5
2018-12-18T05:21:18.520Z,78.6
2018-12-18T05:22:18.406Z,79
2018-12-18T05:23:18.299Z,80.3
2018-12-18T05:24:18.204Z,79.8
2018-12-18T05:25:18.536Z,79.8
2018-12-18T05:26:18.430Z,79.7
2018-12-18T05:27:18.324Z,79.9
2018-12-18T05:28:18.241Z,80
2018-12-18T05:29:18.122Z,80.1
2018-12-18T05:30:17.999Z,80
2018-12-18T05:31:17.892Z,80.2
2018-12-18T05:32:20.564Z,80.3
2018-12-18T05:33:20.482Z,80.7
2018-12-18T05:34:20.382Z,80.9
2018-12-18T05:35:26.795Z,80.8
2018-12-18T05:36:26.717Z,80.2
2018-12-18T05:37:26.625Z,80.5
2018-12-18T05:38:26.528Z,80.4
2018-12-18T05:45:25.283Z,78.2
2018-12-18T05:46:25.197Z,78.5
2018-12-18T05:47:25.085Z,79.3
2018-12-18T05:48:25.230Z,79
2018-12-18T05:49:25.112Z,79.6
2018-12-18T05:50:25.026Z,79.2
2018-12-18T05:51:24.911Z,80
2018-12-18T05:52:24.817Z,80.3
2018-12-18T05:53:24.721Z,80.5
2018-12-18T05:54:24.649Z,80.1
2018-12-18T05:55:24.949Z,80.5
2018-12-18T05:56:24.835Z,80.7
2018-12-18T05:57:24.724Z,80.7
2018-12-18T05:58:24.618Z,80.7
2018-12-18T05:59:24.523Z,81
2018-12-18T06:00:24.414Z,80.9
2018-12-18T06:01:24.310Z,81
2018-12-18T06:02:24.221Z,81.2
2018-12-18T06:03:24.105Z,81.3
2018-12-18T06:04:24.019Z,81.2
2018-12-18T06:05:24.365Z,81.4
2018-12-18T06:06:24.241Z,81.8
2018-12-18T06:07:24.133Z,81.8
2018-12-18T06:08:24.013Z,81.6
2018-12-18T06:09:23.899Z,81.6
2018-12-18T06:10:23.797Z,81.6
2018-12-18T06:11:23.698Z,81.9
2018-12-18T06:12:23.595Z,81.7
2018-12-18T06:13:23.494Z,81.9
2018-12-18T06:14:23.389Z,82
2018-12-18T06:15:23.705Z,82.1
2018-12-18T06:16:23.603Z,82.3
2018-12-18T06:17:23.507Z,81.9
2018-12-18T06:18:23.389Z,81.9
2018-12-18T06:19:23.285Z,82.3
2018-12-18T06:20:23.191Z,82.3
2018-12-18T06:21:23.131Z,82.2
2018-12-18T06:22:23.002Z,81.8
2018-12-18T06:23:22.879Z,82.2
2018-12-18T06:24:22.765Z,82.3
2018-12-18T06:25:23.089Z,82.3
2018-12-18T06:26:22.984Z,82.2
2018-12-18T06:27:22.885Z,82
2018-12-18T06:28:22.786Z,82.3
2018-12-18T06:29:22.677Z,82.2
2018-12-18T06:30:22.553Z,82.3
2018-12-18T06:31:22.477Z,82.3
2018-12-18T06:32:22.391Z,82.3
2018-12-18T06:33:22.302Z,82.3
2018-12-18T06:34:22.191Z,82
2018-12-18T06:35:22.508Z,82.3
2018-12-18T06:36:22.389Z,82
2018-12-18T06:37:22.303Z,82.3
2018-12-18T06:38:22.199Z,82.4
2018-12-18T06:39:22.087Z,82
2018-12-18T06:40:21.979Z,81.9
2018-12-18T06:41:21.890Z,82
2018-12-18T06:42:21.795Z,82.2
2018-12-18T06:43:21.694Z,82.2
2018-12-18T06:44:21.586Z,82.4
2018-12-18T06:45:21.911Z,82.2
2018-12-18T06:46:21.813Z,82.1
2018-12-18T06:47:21.760Z,82.3
2018-12-18T06:48:21.659Z,82
2018-12-18T06:49:21.542Z,82.3
2018-12-18T06:50:21.430Z,82.3
2018-12-18T06:51:21.341Z,82.2
2018-12-18T06:52:21.222Z,82.2
2018-12-18T06:53:21.125Z,82
2018-12-18T06:54:21.006Z,82
2018-12-18T06:55:21.387Z,81.5
2018-12-18T06:56:21.298Z,81.4
2018-12-18T07:13:17.421Z,77.2
2018-12-18T07:15:17.427Z,76.7
2018-12-18T07:16:17.340Z,77.5
2018-12-18T07:17:17.298Z,78
2018-12-18T07:18:17.192Z,78.2
2018-12-18T07:19:17.102Z,78.2
2018-12-18T07:20:17.000Z,78.4
2018-12-18T07:21:16.888Z,78.7
2018-12-18T07:22:16.788Z,78.9
2018-12-18T07:23:16.696Z,79.1
2018-12-18T07:24:16.608Z,79
2018-12-18T07:25:16.912Z,79.2
2018-12-18T07:26:16.803Z,79.3
2018-12-18T07:28:16.432Z,78.5
2018-12-18T07:29:16.310Z,78.1
2018-12-18T07:45:24.995Z,75.9
2018-12-18T07:55:22.984Z,74.7
2018-12-18T07:56:22.888Z,75.6
2018-12-18T07:57:22.801Z,75.6
2018-12-18T07:58:22.684Z,76
2018-12-18T07:59:22.567Z,76
2018-12-18T08:00:22.444Z,76.3
2018-12-18T08:01:22.583Z,76.2
2018-12-18T08:02:22.481Z,75.8
2018-12-18T08:03:22.383Z,76.3
2018-12-18T08:04:22.281Z,76.4
2018-12-18T08:05:22.591Z,76.7
2018-12-18T08:06:22.530Z,76.7
2018-12-18T08:07:22.426Z,77.5
2018-12-18T08:08:22.342Z,77.4
2018-12-18T08:09:22.240Z,77.5
2018-12-18T08:10:22.154Z,77.3
2018-12-18T08:11:22.039Z,77.6
2018-12-18T08:12:21.957Z,77.6
2018-12-18T08:13:21.858Z,77.8
2018-12-18T08:14:21.760Z,77.8
2018-12-18T08:15:22.072Z,77
2018-12-18T08:16:21.980Z,77.4
2018-12-18T08:17:21.889Z,77.3
2018-12-18T08:18:21.789Z,77.5
2018-12-18T08:19:21.686Z,77.6
2018-12-18T08:20:21.577Z,77.2
2018-12-18T08:21:21.467Z,77
2018-12-18T08:22:21.366Z,77.7
2018-12-18T08:23:21.289Z,77.3
2018-12-18T08:24:21.183Z,76.9
2018-12-18T08:25:21.511Z,77.4
2018-12-18T08:26:21.399Z,77.2
2018-12-18T08:27:21.281Z,76.9
2018-12-18T08:28:21.237Z,76.9
2018-12-18T08:29:21.111Z,76.7
2018-12-18T08:30:21.003Z,76.9
2018-12-18T08:31:20.949Z,76.9
2018-12-18T08:32:20.861Z,76.6
2018-12-18T08:33:20.747Z,76.4
2018-12-18T08:34:20.912Z,76.5
2018-12-18T08:35:21.212Z,76.4
2018-12-18T08:36:21.123Z,76.5
2018-12-18T08:37:21.017Z,77
2018-12-18T08:38:20.910Z,76.5
2018-12-18T08:39:20.801Z,76.6
2018-12-18T08:40:20.683Z,76.8
2018-12-18T08:41:20.595Z,76.4
2018-12-18T08:42:20.487Z,76.2
2018-12-18T08:43:23.088Z,76.6
2018-12-18T08:44:22.992Z,76.5
2018-12-18T08:45:23.318Z,76.5
2018-12-18T08:46:23.234Z,76.8
2018-12-18T08:47:23.151Z,76.6
2018-12-18T08:48:23.047Z,76.5
2018-12-18T08:49:22.934Z,76.5
2018-12-18T08:50:22.814Z,76.5
2018-12-18T08:51:22.716Z,76.9
2018-12-18T08:52:22.607Z,76.1
2018-12-18T08:53:22.492Z,76.1
2018-12-18T08:54:22.363Z,76.3
2018-12-18T08:55:22.700Z,76
2018-12-18T08:56:22.611Z,76.4
2018-12-18T08:57:22.542Z,75.7
2018-12-18T08:58:22.447Z,75.2
2018-12-18T08:59:22.359Z,74.7
2018-12-18T09:00:22.244Z,74.5
2018-12-18T09:01:22.152Z,74.2
2018-12-18T09:02:22.056Z,74
2018-12-18T09:03:21.948Z,74.9
2018-12-18T09:04:21.843Z,74.7
2018-12-18T09:05:22.399Z,74.7
2018-12-18T09:06:22.306Z,74.2
2018-12-18T09:07:22.197Z,74.2
2018-12-18T09:08:22.089Z,74.1
2018-12-18T09:09:21.996Z,74.1
2018-12-18T09:10:21.882Z,73.9
2018-12-18T09:11:21.750Z,74.6
2018-12-18T09:12:21.638Z,73.7
2018-12-18T09:13:21.545Z,74.1
2018-12-18T09:14:21.503Z,74.4
2018-12-18T09:15:21.842Z,73.7
2018-12-18T09:16:21.756Z,73.6
2018-12-18T09:17:21.660Z,73.5
2018-12-18T09:18:21.554Z,73.5
2018-12-18T09:19:21.466Z,73.2
2018-12-18T09:20:21.376Z,73.1
2018-12-18T09:21:21.298Z,73.7
2018-12-18T09:22:21.206Z,74.4
2018-12-18T09:23:21.119Z,73.9
2018-12-18T09:24:21.025Z,73.4
2018-12-18T09:25:21.325Z,72.7
2018-12-18T09:26:21.209Z,73.3
2018-12-18T09:27:21.132Z,73
2018-12-18T09:28:21.054Z,72.7
2018-12-18T09:29:21.024Z,73.1
2018-12-18T09:30:20.905Z,72.3
2018-12-18T09:31:20.795Z,72.7
2018-12-18T09:32:20.735Z,73.4
2018-12-18T09:33:20.688Z,73.2
2018-12-18T09:34:20.619Z,71.3
2018-12-18T09:35:20.978Z,71.6
2018-12-18T09:36:20.864Z,72.2
2018-12-18T09:37:20.785Z,70.6
2018-12-18T09:38:20.688Z,71.3
2018-12-18T09:39:20.554Z,71.1
2018-12-18T09:40:20.464Z,71.4
2018-12-18T09:41:20.345Z,71.7
2018-12-18T09:42:20.229Z,71.4
2018-12-18T09:43:20.126Z,70.2
2018-12-18T09:44:20.012Z,71.5
2018-12-18T09:45:20.371Z,71.8
2018-12-18T09:46:20.268Z,71.5
2018-12-18T09:47:20.165Z,71.1
2018-12-18T09:48:20.082Z,70
2018-12-18T09:49:19.986Z,69.9
2018-12-18T09:50:19.896Z,70
2018-12-18T09:51:19.792Z,70.7
2018-12-18T09:52:19.686Z,70.7
2018-12-18T09:53:19.563Z,69.9
2018-12-18T09:54:19.472Z,69.8
2018-12-18T09:55:19.792Z,70.2
2018-12-18T09:56:19.678Z,70.5
2018-12-18T09:57:19.810Z,69.1
2018-12-18T09:58:19.698Z,67.9
2018-12-18T09:59:19.613Z,69.9
2018-12-18T10:00:19.502Z,70.9
2018-12-18T10:01:19.381Z,69.2
2018-12-18T10:02:19.262Z,70.6
2018-12-18T10:03:19.230Z,70.4
2018-12-18T10:04:19.148Z,70.5
2018-12-18T10:05:19.457Z,70.2
2018-12-18T10:06:19.339Z,70.3
2018-12-18T10:07:19.254Z,70.3
2018-12-18T10:08:19.146Z,70.5
2018-12-18T10:09:19.030Z,69.7
2018-12-18T10:10:18.934Z,69.6
2018-12-18T10:11:18.835Z,69.4
2018-12-18T10:12:18.715Z,69.2
2018-12-18T10:13:18.600Z,68.2
2018-12-18T10:14:18.520Z,67.1
2018-12-18T10:15:18.878Z,68.2
2018-12-18T10:16:18.764Z,69
2018-12-18T10:17:18.647Z,67.8
2018-12-18T10:18:18.539Z,67.6
2018-12-18T10:19:18.442Z,68.8
2018-12-18T10:20:18.396Z,67.6
2018-12-18T10:21:18.299Z,66.1
2018-12-18T10:22:18.211Z,65.7
2018-12-18T10:23:18.096Z,67.4
2018-12-18T10:24:18.013Z,67.7
2018-12-18T10:25:18.358Z,66.1
2018-12-18T10:26:18.263Z,66.3
2018-12-18T10:27:18.166Z,66.3
2018-12-18T10:28:18.077Z,66.2
2018-12-18T10:29:17.988Z,65.7
2018-12-18T10:30:17.880Z,67
2018-12-18T10:31:17.801Z,67.3
2018-12-18T10:32:17.743Z,66.9
2018-12-18T10:33:17.856Z,66.2
2018-12-18T10:34:17.746Z,67.1
2018-12-18T10:35:18.083Z,67.3
2018-12-18T10:36:18.191Z,67.7
2018-12-18T10:37:18.121Z,66.6
2018-12-18T10:38:18.025Z,66.7
2018-12-18T10:39:17.924Z,65.3
2018-12-18T10:40:17.824Z,62.3
2018-12-18T10:41:17.767Z,64.6
2018-12-18T10:42:17.679Z,64.6
2018-12-18T10:43:17.569Z,63.8
2018-12-18T10:44:17.468Z,64.2
2018-12-18T10:45:17.808Z,62
2018-12-18T10:46:17.694Z,62.3
2018-12-18T10:47:17.601Z,62.5
2018-12-18T10:48:17.513Z,63.8
2018-12-18T10:49:17.395Z,60.4
2018-12-18T10:50:17.289Z,61.4
2018-12-18T10:51:17.198Z,61.5
2018-12-18T10:52:17.100Z,62.9
2018-12-18T10:53:17.077Z,62.7
2018-12-18T10:54:17.017Z,63.2
2018-12-18T10:55:17.352Z,63.8
2018-12-18T10:56:17.245Z,63.5
2018-12-18T10:57:17.165Z,64
2018-12-18T10:58:24.367Z,63.9
2018-12-18T10:59:24.307Z,64.3
2018-12-18T11:00:24.187Z,61.8
2018-12-18T11:01:24.126Z,61.8
2018-12-18T11:02:24.033Z,62
2018-12-18T11:03:23.938Z,62.3
2018-12-18T11:04:23.805Z,62.3
2018-12-18T11:05:24.198Z,62.3
2018-12-18T11:06:24.103Z,63.3
2018-12-18T11:07:24.009Z,61.4
2018-12-18T11:08:23.899Z,62.8
2018-12-18T11:09:23.834Z,62.7
2018-12-18T11:10:23.729Z,58.8
2018-12-18T11:11:23.622Z,60
2018-12-18T11:12:23.551Z,62.7
2018-12-18T11:13:23.449Z,63.8
2018-12-18T11:14:23.445Z,64
2018-12-18T11:15:23.801Z,63.2
2018-12-18T11:16:23.703Z,61.1
2018-12-18T11:17:23.603Z,62.2
2018-12-18T11:18:23.543Z,61.8
2018-12-18T11:19:23.493Z,61.7
2018-12-18T11:20:23.393Z,62.5
2018-12-18T11:21:23.305Z,63.7
2018-12-18T11:22:23.175Z,64.1
2018-12-18T11:23:23.063Z,64.5
2018-12-18T11:24:22.961Z,65.1
2018-12-18T11:25:23.527Z,64.8
2018-12-18T11:26:23.417Z,63.8
2018-12-18T11:27:23.312Z,64.1
2018-12-18T11:28:23.213Z,63.6
2018-12-18T11:29:23.116Z,63.8
2018-12-18T11:30:23.023Z,63.6
2018-12-18T11:31:25.899Z,62.6
2018-12-18T11:32:25.795Z,62.3
2018-12-18T11:33:25.711Z,61.8
2018-12-18T11:34:25.636Z,62.2
2018-12-18T11:35:25.961Z,62.8
2018-12-18T11:36:28.421Z,63.2
2018-12-18T11:37:28.311Z,63.4
2018-12-18T11:38:28.211Z,63.4
2018-12-18T11:39:28.128Z,62.8
2018-12-18T11:40:28.023Z,62.2
2018-12-18T11:41:27.931Z,62.4
2018-12-18T11:42:27.843Z,61.8
2018-12-18T11:43:27.739Z,61.3
2018-12-18T11:44:27.635Z,61.2
2018-12-18T11:45:28.067Z,61.2
2018-12-18T11:46:27.962Z,60.6
2018-12-18T11:47:27.847Z,61
2018-12-18T11:48:27.733Z,61.8
2018-12-18T11:49:27.613Z,61.3
2018-12-18T11:50:27.542Z,61.2
2018-12-18T11:51:27.459Z,62
2018-12-18T11:52:27.391Z,62.3
2018-12-18T11:53:27.328Z,62.5
2018-12-18T11:54:27.227Z,62.1
2018-12-18T11:55:27.550Z,62.2
2018-12-18T11:56:27.445Z,62.9
2018-12-18T11:57:27.357Z,63.1
2018-12-18T11:58:27.258Z,63.5
2018-12-18T11:59:27.157Z,63.8
2018-12-18T12:00:27.719Z,64
2018-12-18T12:01:27.628Z,63.1
2018-12-18T12:02:27.508Z,63.4
2018-12-18T12:03:27.616Z,61.6
2018-12-18T12:04:27.501Z,60.5
2018-12-18T12:05:27.824Z,61.4
2018-12-18T12:06:27.743Z,62.3
2018-12-18T12:07:27.649Z,62.6
2018-12-18T12:08:27.544Z,62.9
2018-12-18T12:09:27.431Z,62.8
2018-12-18T12:10:27.395Z,62.8
2018-12-18T12:11:27.317Z,63.3
2018-12-18T12:12:27.221Z,63.2
2018-12-18T12:13:27.093Z,63.7
2018-12-18T12:14:26.978Z,63.7
2018-12-18T12:15:27.507Z,64.1
2018-12-18T12:16:27.388Z,64.1
2018-12-18T12:17:27.325Z,64
2018-12-18T12:18:27.203Z,63
2018-12-18T12:19:27.091Z,63.9
2018-12-18T12:20:27.210Z,63.4
2018-12-18T12:21:27.101Z,62.8
2018-12-18T12:22:27.005Z,63.3
2018-12-18T12:23:26.903Z,63.2
2018-12-18T12:24:26.795Z,62.1
2018-12-18T12:25:27.389Z,63
2018-12-18T12:26:28.325Z,64
2018-12-18T12:27:28.204Z,63.4
2018-12-18T12:28:28.113Z,62
2018-12-18T12:29:27.999Z,61.8
2018-12-18T12:30:27.881Z,61.9
2018-12-18T12:31:27.783Z,62
2018-12-18T12:32:27.679Z,62.7
2018-12-18T12:33:27.823Z,61.7
2018-12-18T12:34:27.733Z,60.7
2018-12-18T12:35:28.131Z,61.5
2018-12-18T12:36:33.413Z,60.9
2018-12-18T12:37:33.314Z,60.7
2018-12-18T12:38:33.237Z,60.1
2018-12-18T12:39:33.131Z,61
2018-12-18T12:40:33.018Z,61.1
2018-12-18T12:41:32.925Z,61.5
2018-12-18T12:42:32.823Z,61.7
2018-12-18T12:43:32.706Z,60.6
2018-12-18T12:44:32.621Z,61
2018-12-18T12:45:33.193Z,61.2
2018-12-18T12:46:33.089Z,59.6
2018-12-18T12:47:33.048Z,59
2018-12-18T12:48:32.941Z,58.8
2018-12-18T12:49:32.915Z,58.3
2018-12-18T12:50:32.835Z,58.4
2018-12-18T12:51:32.737Z,58.7
2018-12-18T12:52:32.646Z,59
2018-12-18T12:53:32.554Z,59
2018-12-18T12:54:32.456Z,58.6
2018-12-18T12:55:32.784Z,58.7
2018-12-18T12:56:32.679Z,58.7
2018-12-18T12:57:32.647Z,58.8
2018-12-18T12:58:32.559Z,58.5
2018-12-18T12:59:32.473Z,58
2018-12-18T13:00:32.452Z,59
2018-12-18T13:01:32.372Z,57.6
2018-12-18T13:02:32.285Z,58.3
2018-12-18T13:03:32.180Z,57.6
2018-12-18T13:04:32.068Z,57.9
2018-12-18T13:05:32.460Z,58.6
2018-12-18T13:06:37.243Z,59
2018-12-18T13:07:37.134Z,58.9
2018-12-18T13:08:37.032Z,58.7
2018-12-18T13:09:36.931Z,58.5
2018-12-18T13:10:36.900Z,58.6
2018-12-18T13:11:36.809Z,58.7
2018-12-18T13:12:36.713Z,59
2018-12-18T13:13:36.611Z,59
2018-12-18T13:14:36.507Z,58.3
2018-12-18T13:15:36.913Z,58.2
2018-12-18T13:16:39.492Z,58.9
2018-12-18T13:17:39.398Z,59.3
2018-12-18T13:18:39.534Z,59.2
2018-12-18T13:19:39.439Z,58.7
2018-12-18T13:20:39.342Z,59.2
2018-12-18T13:21:39.244Z,59.5
2018-12-18T13:22:39.150Z,59.2
2018-12-18T13:23:39.056Z,58.8
2018-12-18T13:24:38.940Z,58.6
2018-12-18T13:25:39.534Z,58.8
2018-12-18T13:26:39.444Z,57.9
2018-12-18T13:27:39.366Z,57.5
2018-12-18T13:28:39.252Z,58.2
2018-12-18T13:29:39.142Z,57.9
2018-12-18T13:30:39.027Z,58.7
2018-12-18T13:31:38.912Z,58.6
2018-12-18T13:32:38.838Z,58
2018-12-18T13:33:38.730Z,58.2
2018-12-18T13:34:38.621Z,58.7
2018-12-18T13:35:39.007Z,59.3
2018-12-18T13:36:43.809Z,58.5
2018-12-18T13:37:43.725Z,57.8
2018-12-18T13:38:43.607Z,57.9
2018-12-18T13:39:43.501Z,57.8
2018-12-18T13:40:43.390Z,57.6
2018-12-18T13:41:43.278Z,57.9
2018-12-18T13:42:43.223Z,58.3
2018-12-18T13:43:43.364Z,58.2
2018-12-18T13:44:43.246Z,58.3
2018-12-18T13:45:43.570Z,58.3
2018-12-18T13:46:43.686Z,58.4
2018-12-18T13:47:43.605Z,58.2
2018-12-18T13:48:43.547Z,58.4
2018-12-18T13:49:44.466Z,58.5
2018-12-18T13:50:44.378Z,58.2
2018-12-18T13:51:44.292Z,58.8
2018-12-18T13:52:44.174Z,58.7
2018-12-18T13:53:44.073Z,59.5
2018-12-18T13:54:43.978Z,60
2018-12-18T13:55:44.368Z,60.5
2018-12-18T13:56:44.272Z,60.5
2018-12-18T13:57:44.180Z,61.1
2018-12-18T13:58:44.094Z,61.9
2018-12-18T13:59:44.044Z,62.4
2018-12-18T14:00:43.953Z,62.9
2018-12-18T14:01:43.927Z,63.6
2018-12-18T14:02:43.826Z,64.1
2018-12-18T14:03:43.715Z,64.1
2018-12-18T14:04:43.620Z,64.2
2018-12-18T14:05:46.001Z,64.4
2018-12-18T14:06:50.512Z,64.5
2018-12-18T14:07:50.421Z,65
2018-12-18T14:08:50.305Z,65.1
2018-12-18T14:09:50.186Z,65.3
2018-12-18T14:10:50.114Z,65.5
2018-12-18T14:11:50.013Z,65.7
2018-12-18T14:12:50.112Z,65.7
2018-12-18T14:13:50.022Z,65.7
2018-12-18T14:14:49.900Z,66.1
2018-12-18T14:15:50.473Z,66.3
2018-12-18T14:16:50.390Z,66.4
2018-12-18T14:17:50.314Z,66.6
2018-12-18T14:18:50.216Z,66.5
2018-12-18T14:19:50.120Z,66.6
2018-12-18T14:20:50.012Z,66.7
2018-12-18T14:21:49.910Z,66.8
2018-12-18T14:22:49.836Z,67
2018-12-18T14:23:49.720Z,67.1
2018-12-18T14:24:49.610Z,67.1
2018-12-18T14:25:49.940Z,67.2
2018-12-18T14:26:49.846Z,66.7
2018-12-18T14:27:49.959Z,66.5
2018-12-18T14:28:49.959Z,66.5
2018-12-18T14:29:49.859Z,66.3
2018-12-18T14:30:49.754Z,66.2
2018-12-18T14:31:49.652Z,66.1
2018-12-18T14:32:49.560Z,66
2018-12-18T14:33:49.464Z,66.5
2018-12-18T14:34:49.362Z,66.6
2018-12-18T14:35:49.698Z,66.7
2018-12-18T14:36:56.580Z,66.9
2018-12-18T14:37:56.546Z,67.3
2018-12-18T14:38:56.432Z,67.1
2018-12-18T14:39:56.336Z,67.1
2018-12-18T14:40:56.235Z,67.1
2018-12-18T14:41:56.354Z,66.9
2018-12-18T14:42:56.242Z,67
2018-12-18T14:43:56.162Z,67
2018-12-18T14:44:56.089Z,67.5
2018-12-18T14:45:56.431Z,67.5
2018-12-18T14:46:56.339Z,67.9
2018-12-18T14:47:56.234Z,67.2
2018-12-18T14:48:56.137Z,67.3
2018-12-18T14:49:56.280Z,67.5
2018-12-18T14:50:56.181Z,68.1
2018-12-18T14:51:56.085Z,68.1
2018-12-18T14:52:56.006Z,68
2018-12-18T14:53:55.911Z,68
2018-12-18T14:54:55.808Z,67.8
2018-12-18T14:55:56.359Z,68
2018-12-18T14:56:56.255Z,68
2018-12-18T14:57:56.125Z,67.8
2018-12-18T14:58:56.081Z,67.6
2018-12-18T14:59:55.981Z,67.9
2018-12-18T15:00:56.130Z,68
2018-12-18T15:01:56.023Z,68.3
2018-12-18T15:02:55.928Z,68.5
2018-12-18T15:03:55.847Z,68.6
2018-12-18T15:04:55.792Z,68.7
2018-12-18T15:05:56.136Z,68.7
2018-12-18T15:07:02.606Z,69
2018-12-18T15:08:03.077Z,68.7
2018-12-18T15:09:02.970Z,69.3
2018-12-18T15:10:02.881Z,69.4
2018-12-18T15:11:02.826Z,68.9
2018-12-18T15:12:02.729Z,69